Time;durP1;ratioP1;P1;durP2;ratioP2;P2;SDS_P1;SDS_P2;PMS_P1;PMS_P2;Temp;Humidity;BMP_temperature;BMP_pressure;BME280_temperature;BME280_humidity;BME280_pressure;Samples;Min_cycle;Max_cycle;Signal;HPM_P1;HPM_P2
2024/04/03 00:00:31;;;;;;;11.23;3.20;;;11.00;99.90;;;;;;5073361;28;20028;-77
2024/04/03 00:02:57;;;;;;;9.82;3.55;;;11.00;99.90;;;;;;5073327;28;20024;-77
2024/04/03 00:05:23;;;;;;;7.80;3.00;;;11.00;99.90;;;;;;5073404;28;20546;-77
2024/04/03 00:07:51;;;;;;;9.27;3.65;;;11.00;99.90;;;;;;5072845;28;20021;-77
2024/04/03 00:10:16;;;;;;;12.18;3.42;;;11.00;99.90;;;;;;5073339;28;20059;-77
2024/04/03 00:12:42;;;;;;;12.32;3.40;;;11.00;99.90;;;;;;5073962;28;20447;-77
2024/04/03 00:15:08;;;;;;;12.90;3.85;;;11.00;99.90;;;;;;5073047;28;20111;-77
2024/04/03 00:17:33;;;;;;;7.25;3.67;;;10.90;99.90;;;;;;5074175;28;20020;-76
2024/04/03 00:19:59;;;;;;;8.45;3.33;;;11.00;99.90;;;;;;5073311;28;20389;-76
2024/04/03 00:22:25;;;;;;;11.82;3.47;;;10.90;99.90;;;;;;5073849;28;20100;-76
2024/04/03 00:24:50;;;;;;;8.70;4.32;;;11.00;99.90;;;;;;5073246;28;20263;-77
2024/04/03 00:27:16;;;;;;;9.43;3.65;;;10.90;99.90;;;;;;5073240;28;20330;-77
2024/04/03 00:29:46;;;;;;;9.52;3.72;;;10.90;99.90;;;;;;5073429;28;20025;-77
2024/04/03 00:32:15;;;;;;;8.38;4.40;;;10.90;99.90;;;;;;5073308;28;20362;-76
2024/04/03 00:34:40;;;;;;;11.43;4.13;;;10.90;99.90;;;;;;5073143;28;20024;-77
2024/04/03 00:37:06;;;;;;;10.50;4.40;;;10.90;99.90;;;;;;5072869;28;20024;-76
2024/04/03 00:39:33;;;;;;;10.32;4.45;;;11.00;99.90;;;;;;5073509;28;20541;-77
2024/04/03 00:41:58;;;;;;;6.53;3.80;;;11.00;99.90;;;;;;5072593;28;20431;-77
2024/04/03 00:44:24;;;;;;;7.38;3.97;;;11.00;99.90;;;;;;5073150;28;20287;-77
2024/04/03 00:46:51;;;;;;;8.25;4.50;;;11.00;99.90;;;;;;5072372;28;20109;-77
2024/04/03 00:49:19;;;;;;;10.98;4.82;;;11.00;99.90;;;;;;5073393;28;20033;-76
2024/04/03 00:51:48;;;;;;;8.73;4.57;;;11.00;99.90;;;;;;5072070;28;20559;-77
2024/04/03 00:54:14;;;;;;;7.05;4.10;;;10.90;99.90;;;;;;5073185;28;20466;-77
2024/04/03 00:56:40;;;;;;;9.40;4.72;;;11.00;99.90;;;;;;5072384;28;20017;-77
2024/04/03 00:59:06;;;;;;;8.95;4.15;;;11.00;99.90;;;;;;5073134;28;20044;-77
2024/04/03 01:01:31;;;;;;;8.93;4.32;;;11.00;99.90;;;;;;5071153;28;20012;-77
2024/04/03 01:03:57;;;;;;;7.43;4.20;;;11.00;99.90;;;;;;5071717;28;20492;-77
2024/04/03 01:06:23;;;;;;;9.70;4.55;;;11.00;99.90;;;;;;5072261;28;20074;-77
2024/04/03 01:08:48;;;;;;;7.60;4.50;;;11.00;99.90;;;;;;5072942;28;20017;-77
2024/04/03 01:11:15;;;;;;;6.50;3.50;;;10.90;99.90;;;;;;5072066;28;20024;-77
2024/04/03 01:13:40;;;;;;;8.75;3.80;;;11.00;99.90;;;;;;5071451;28;20538;-77
2024/04/03 01:16:07;;;;;;;8.55;3.38;;;10.90;99.90;;;;;;5071808;28;20024;-77
2024/04/03 01:18:33;;;;;;;6.88;3.47;;;10.90;99.90;;;;;;5073020;28;20025;-77
2024/04/03 01:20:59;;;;;;;5.80;2.90;;;10.90;99.90;;;;;;5070392;28;20020;-77
2024/04/03 01:23:25;;;;;;;4.50;2.80;;;10.90;99.90;;;;;;5072699;28;20067;-77
2024/04/03 01:25:51;;;;;;;5.05;2.58;;;10.90;99.90;;;;;;5071630;28;20047;-77
2024/04/03 01:28:22;;;;;;;5.30;2.13;;;10.90;99.90;;;;;;5071557;28;20054;-77
2024/04/03 01:30:48;;;;;;;4.93;2.20;;;10.90;99.90;;;;;;5071705;28;20547;-77
2024/04/03 01:33:14;;;;;;;4.43;2.30;;;10.90;99.90;;;;;;5072456;28;20024;-77
2024/04/03 01:35:40;;;;;;;4.35;2.80;;;10.90;99.90;;;;;;5071708;28;20046;-77
2024/04/03 01:38:05;;;;;;;3.33;2.17;;;10.90;99.90;;;;;;5072255;28;20443;-77
2024/04/03 01:40:33;;;;;;;5.47;2.78;;;10.90;99.90;;;;;;5071865;28;20048;-77
2024/04/03 01:42:59;;;;;;;5.78;3.00;;;10.80;99.90;;;;;;5072003;28;20107;-77
2024/04/03 01:45:25;;;;;;;4.95;2.92;;;10.80;99.90;;;;;;5071719;28;20755;-77
2024/04/03 01:47:50;;;;;;;8.27;3.45;;;10.80;99.90;;;;;;5072246;28;20632;-77
2024/04/03 01:50:20;;;;;;;6.85;3.58;;;10.80;99.90;;;;;;5071702;28;20044;-77
2024/04/03 01:52:47;;;;;;;5.72;3.50;;;10.80;99.90;;;;;;5071934;28;20028;-77
2024/04/03 01:55:13;;;;;;;9.18;4.38;;;10.80;99.90;;;;;;5071221;28;20020;-77
2024/04/03 01:57:39;;;;;;;8.68;4.00;;;10.80;99.90;;;;;;5071809;28;20059;-77
2024/04/03 02:00:06;;;;;;;8.48;3.95;;;10.80;99.90;;;;;;5072314;28;20056;-77
2024/04/03 02:02:32;;;;;;;9.02;3.90;;;10.80;99.90;;;;;;5071405;28;20048;-77
2024/04/03 02:04:57;;;;;;;8.75;3.78;;;10.80;99.90;;;;;;5072306;28;20608;-77
2024/04/03 02:07:23;;;;;;;7.70;3.50;;;10.80;99.90;;;;;;5071421;28;20425;-77
2024/04/03 02:09:49;;;;;;;7.65;3.03;;;10.80;99.90;;;;;;5072188;28;20108;-77
2024/04/03 02:12:15;;;;;;;5.93;2.97;;;10.80;99.90;;;;;;5071153;28;20025;-76
2024/04/03 02:14:40;;;;;;;6.45;2.65;;;10.80;99.90;;;;;;5072294;28;20604;-76
2024/04/03 02:17:06;;;;;;;5.22;3.05;;;10.80;99.90;;;;;;5069927;28;20507;-75
2024/04/03 02:19:32;;;;;;;4.75;2.38;;;10.80;99.90;;;;;;5072264;28;20024;-76
2024/04/03 02:21:58;;;;;;;5.20;2.42;;;10.80;99.90;;;;;;5071278;28;20025;-76
2024/04/03 02:24:24;;;;;;;9.20;3.08;;;10.80;99.90;;;;;;5072044;28;20133;-76
2024/04/03 02:26:50;;;;;;;5.82;2.90;;;10.80;99.90;;;;;;5071047;28;20095;-76
2024/04/03 02:29:16;;;;;;;8.40;2.50;;;10.80;99.90;;;;;;5072193;28;20162;-76
2024/04/03 02:31:41;;;;;;;7.38;2.95;;;10.80;99.90;;;;;;5071055;28;20384;-76
2024/04/03 02:34:08;;;;;;;5.60;2.50;;;10.80;99.90;;;;;;5072059;28;20466;-75
2024/04/03 02:36:34;;;;;;;6.47;2.30;;;10.80;99.90;;;;;;5070882;28;20025;-76
2024/04/03 02:38:59;;;;;;;4.28;2.50;;;10.80;99.90;;;;;;5071745;28;20024;-76
2024/04/03 02:41:25;;;;;;;5.47;2.70;;;10.80;99.90;;;;;;5071204;28;20470;-76
2024/04/03 02:43:51;;;;;;;5.00;2.47;;;10.80;99.90;;;;;;5071533;28;20039;-76
2024/04/03 02:46:17;;;;;;;7.90;2.47;;;10.80;99.90;;;;;;5071323;28;20016;-76
2024/04/03 02:48:42;;;;;;;7.05;2.50;;;10.70;99.90;;;;;;5071629;28;20028;-77
2024/04/03 02:51:10;;;;;;;5.82;2.75;;;10.70;99.90;;;;;;5070921;28;20052;-77
2024/04/03 02:53:36;;;;;;;7.50;2.90;;;10.70;99.90;;;;;;5071363;28;20020;-76
2024/04/03 02:56:03;;;;;;;9.82;3.38;;;10.70;99.90;;;;;;5070931;28;20051;-76
2024/04/03 02:58:29;;;;;;;8.65;3.40;;;10.70;99.90;;;;;;5071277;28;20021;-76
2024/04/03 03:01:01;;;;;;;8.75;3.08;;;10.70;99.90;;;;;;5071114;28;20070;-76
2024/04/03 03:03:29;;;;;;;8.40;3.03;;;10.70;99.90;;;;;;5071353;28;20024;-76
2024/04/03 03:05:56;;;;;;;9.20;3.20;;;10.70;99.90;;;;;;5071969;28;20359;-76
2024/04/03 03:08:21;;;;;;;7.75;3.63;;;10.60;99.90;;;;;;5073640;28;20554;-76
2024/04/03 03:10:47;;;;;;;11.35;3.50;;;10.70;99.90;;;;;;5074683;28;20024;-76
2024/04/03 03:13:12;;;;;;;8.18;3.72;;;10.70;99.90;;;;;;5075001;28;20024;-76
2024/04/03 03:15:38;;;;;;;8.13;3.40;;;10.70;99.90;;;;;;5074547;28;20410;-77
2024/04/03 03:18:04;;;;;;;12.15;3.38;;;10.70;99.90;;;;;;5074919;28;20140;-76
2024/04/03 03:20:30;;;;;;;6.78;3.35;;;10.60;99.90;;;;;;5074756;28;20009;-77
2024/04/03 03:22:55;;;;;;;6.80;2.92;;;10.60;99.90;;;;;;5074489;28;20028;-77
2024/04/03 03:25:21;;;;;;;7.90;3.03;;;10.60;99.90;;;;;;5074657;28;20477;-76
2024/04/03 03:27:46;;;;;;;7.35;2.50;;;10.60;99.90;;;;;;5074120;28;20028;-76
2024/04/03 03:30:12;;;;;;;5.72;2.60;;;10.60;99.90;;;;;;5074830;28;20024;-76
2024/04/03 03:32:38;;;;;;;8.43;2.78;;;10.60;99.90;;;;;;5073864;28;20028;-77
2024/04/03 03:35:04;;;;;;;8.57;2.97;;;10.70;99.90;;;;;;5074916;28;20504;-77
2024/04/03 03:37:29;;;;;;;6.57;2.58;;;10.60;99.90;;;;;;5073878;28;20053;-77
2024/04/03 03:40:00;;;;;;;5.93;2.60;;;10.70;99.90;;;;;;5074496;28;20017;-77
2024/04/03 03:42:26;;;;;;;9.38;3.10;;;10.60;99.90;;;;;;5073959;28;20028;-76
2024/04/03 03:44:52;;;;;;;7.10;2.90;;;10.60;99.90;;;;;;5074554;28;20043;-77
2024/04/03 03:47:17;;;;;;;8.63;2.58;;;10.60;99.90;;;;;;5074275;28;20082;-76
2024/04/03 03:52:36;;;;;;;8.05;2.97;;;10.60;99.90;;;;;;5074023;28;20043;-77
2024/04/03 03:55:02;;;;;;;8.50;2.70;;;10.60;99.90;;;;;;5074251;28;20024;-76
2024/04/03 03:57:30;;;;;;;9.25;3.13;;;10.60;99.90;;;;;;5073893;28;20478;-76
2024/04/03 03:59:57;;;;;;;7.13;2.83;;;10.60;99.90;;;;;;5074220;28;20017;-77
2024/04/03 04:02:23;;;;;;;9.18;3.33;;;10.60;99.90;;;;;;5073838;28;20028;-76
2024/04/03 04:04:49;;;;;;;8.38;2.90;;;10.60;99.90;;;;;;5074095;28;20025;-76
2024/04/03 04:07:16;;;;;;;6.10;2.78;;;10.60;99.90;;;;;;5073579;28;20024;-76
2024/04/03 04:09:41;;;;;;;7.13;3.10;;;10.60;99.90;;;;;;5074219;28;20116;-77
2024/04/03 04:12:07;;;;;;;7.10;2.60;;;10.60;99.90;;;;;;5073791;28;20119;-76
2024/04/03 04:14:33;;;;;;;9.48;2.63;;;10.60;99.90;;;;;;5073996;28;20063;-77
2024/04/03 04:16:58;;;;;;;9.80;2.70;;;10.60;99.90;;;;;;5073381;28;20039;-77
2024/04/03 04:19:24;;;;;;;7.38;2.15;;;10.60;99.90;;;;;;5073444;28;20542;-77
2024/04/03 04:21:50;;;;;;;9.50;2.70;;;10.60;99.90;;;;;;5073317;28;20066;-77
2024/04/03 04:24:20;;;;;;;6.55;2.50;;;10.60;99.90;;;;;;5073508;28;20019;-77
2024/04/03 04:26:46;;;;;;;7.70;2.75;;;10.60;99.90;;;;;;5073150;28;20024;-77
2024/04/03 04:29:12;;;;;;;8.52;2.88;;;10.60;99.90;;;;;;5073661;28;20024;-77
2024/04/03 04:31:38;;;;;;;7.30;2.35;;;10.50;99.90;;;;;;5073021;28;20551;-77
2024/04/03 04:34:04;;;;;;;7.43;2.50;;;10.60;99.90;;;;;;5073346;28;20056;-76
2024/04/03 04:36:29;;;;;;;7.72;2.45;;;10.60;99.90;;;;;;5072894;28;20040;-77
2024/04/03 04:38:55;;;;;;;7.47;2.70;;;10.50;99.90;;;;;;5073456;28;20025;-76
2024/04/03 04:41:21;;;;;;;6.80;2.05;;;10.50;99.90;;;;;;5072987;28;20016;-76
2024/04/03 04:43:46;;;;;;;6.38;2.30;;;10.50;99.90;;;;;;5073168;28;20034;-76
2024/04/03 04:46:12;;;;;;;4.95;2.30;;;10.50;99.90;;;;;;5072814;28;20206;-76
2024/04/03 04:48:37;;;;;;;8.52;2.47;;;10.50;99.90;;;;;;5073199;28;20016;-76
2024/04/03 04:51:04;;;;;;;7.18;2.60;;;10.60;99.90;;;;;;5072431;28;20158;-76
2024/04/03 04:53:30;;;;;;;7.45;2.20;;;10.60;99.90;;;;;;5073078;28;20020;-76
2024/04/03 04:56:04;;;;;;;7.30;2.03;;;10.50;99.90;;;;;;5072276;28;20021;-76
2024/04/03 04:58:30;;;;;;;6.97;2.00;;;10.60;99.90;;;;;;5073255;28;20028;-76
2024/04/03 05:01:06;;;;;;;8.05;2.22;;;10.50;99.90;;;;;;5072314;28;20017;-76
2024/04/03 05:03:35;;;;;;;3.88;1.85;;;10.50;99.90;;;;;;5072984;28;20470;-76
2024/04/03 05:06:02;;;;;;;5.28;2.50;;;10.50;99.90;;;;;;5072011;28;20513;-76
2024/04/03 05:08:30;;;;;;;8.02;2.35;;;10.50;99.90;;;;;;5073126;28;20032;-77
2024/04/03 05:10:57;;;;;;;7.20;2.50;;;10.50;99.90;;;;;;5072494;28;20347;-76
2024/04/03 05:13:25;;;;;;;7.95;2.17;;;10.50;99.90;;;;;;5073029;28;20028;-76
2024/04/03 05:15:51;;;;;;;6.00;2.05;;;10.50;99.90;;;;;;5072232;28;20021;-76
2024/04/03 05:18:17;;;;;;;5.93;1.95;;;10.50;99.90;;;;;;5072362;28;20503;-76
2024/04/03 05:20:43;;;;;;;9.25;2.25;;;10.50;99.90;;;;;;5072691;28;20016;-77
2024/04/03 05:23:08;;;;;;;9.98;2.72;;;10.50;99.90;;;;;;5072233;28;20027;-77
2024/04/03 05:25:34;;;;;;;10.73;2.80;;;10.50;99.90;;;;;;5072379;28;20020;-76
2024/04/03 05:28:00;;;;;;;8.35;2.50;;;10.50;99.90;;;;;;5072010;28;20024;-76
2024/04/03 05:30:25;;;;;;;7.90;2.78;;;10.50;99.90;;;;;;5071480;28;20063;-76
2024/04/03 05:32:51;;;;;;;7.43;2.60;;;10.50;99.90;;;;;;5071734;28;20037;-76
2024/04/03 05:35:21;;;;;;;8.98;2.80;;;10.50;99.90;;;;;;5072324;28;20389;-76
2024/04/03 05:37:47;;;;;;;5.57;2.33;;;10.50;99.90;;;;;;5072065;28;20063;-76
2024/04/03 05:40:13;;;;;;;6.95;2.80;;;10.50;99.90;;;;;;5072336;28;20489;-77
2024/04/03 05:42:39;;;;;;;11.30;2.80;;;10.50;99.90;;;;;;5071888;28;20074;-77
2024/04/03 05:45:05;;;;;;;9.27;3.08;;;10.50;99.90;;;;;;5072170;28;20440;-77
2024/04/03 05:47:32;;;;;;;9.15;2.80;;;10.50;99.90;;;;;;5071774;28;20051;-77
2024/04/03 05:49:58;;;;;;;11.23;2.85;;;10.50;99.90;;;;;;5071865;28;20043;-77
2024/04/03 05:52:24;;;;;;;11.52;2.72;;;10.50;99.90;;;;;;5071635;28;20063;-77
2024/04/03 05:54:50;;;;;;;9.57;3.20;;;10.50;99.90;;;;;;5071974;28;20024;-77
2024/04/03 05:57:17;;;;;;;8.68;2.53;;;10.50;99.90;;;;;;5071667;28;20021;-77
2024/04/03 05:59:44;;;;;;;8.30;3.08;;;10.50;99.90;;;;;;5071920;28;20073;-77
2024/04/03 06:02:11;;;;;;;8.98;3.00;;;10.50;99.90;;;;;;5070280;28;20024;-77
2024/04/03 06:04:36;;;;;;;9.07;3.10;;;10.50;99.90;;;;;;5071858;28;20370;-77
2024/04/03 06:07:03;;;;;;;9.63;3.28;;;10.50;99.90;;;;;;5071253;28;20024;-77
2024/04/03 06:09:32;;;;;;;10.98;3.30;;;10.50;99.90;;;;;;5072129;28;20021;-77
2024/04/03 06:11:58;;;;;;;8.88;2.80;;;10.50;99.90;;;;;;5071311;28;20052;-77
2024/04/03 06:14:23;;;;;;;8.50;3.38;;;10.50;99.90;;;;;;5071985;28;20457;-77
2024/04/03 06:16:49;;;;;;;8.63;3.35;;;10.50;99.90;;;;;;5071044;28;20100;-77
2024/04/03 06:19:15;;;;;;;9.70;3.60;;;10.50;99.90;;;;;;5072037;28;20024;-77
2024/04/03 06:21:41;;;;;;;11.27;3.20;;;10.50;99.90;;;;;;5071188;28;20092;-77
2024/04/03 06:24:07;;;;;;;7.85;3.08;;;10.50;99.90;;;;;;5071734;28;20115;-77
2024/04/03 06:26:33;;;;;;;10.13;3.33;;;10.50;99.90;;;;;;5071147;28;20067;-76
2024/04/03 06:29:00;;;;;;;9.43;2.85;;;10.50;99.90;;;;;;5071985;28;20497;-76
2024/04/03 06:31:29;;;;;;;7.63;2.70;;;10.50;99.90;;;;;;5070993;28;20032;-77
2024/04/03 06:33:56;;;;;;;10.35;3.03;;;10.60;99.90;;;;;;5072151;28;20043;-77
2024/04/03 06:36:23;;;;;;;7.57;2.70;;;10.60;99.90;;;;;;5070917;28;20028;-77
2024/04/03 06:38:49;;;;;;;7.57;2.78;;;10.60;99.90;;;;;;5072150;28;20036;-77
2024/04/03 06:41:14;;;;;;;7.53;2.63;;;10.60;99.90;;;;;;5072785;28;20036;-77
2024/04/03 06:43:40;;;;;;;9.43;2.92;;;10.60;99.90;;;;;;5075714;28;20178;-76
2024/04/03 06:46:06;;;;;;;6.35;2.90;;;10.60;99.90;;;;;;5075350;28;20029;-77
2024/04/03 06:48:32;;;;;;;7.82;2.70;;;10.60;99.90;;;;;;5074967;28;20484;-76
2024/04/03 06:50:58;;;;;;;8.95;3.00;;;10.70;99.90;;;;;;5075014;28;20066;-76
2024/04/03 06:53:23;;;;;;;10.20;3.08;;;10.70;99.90;;;;;;5075103;28;20104;-77
2024/04/03 06:56:00;;;;;;;6.50;2.92;;;10.70;99.90;;;;;;5075278;28;20099;-77
2024/04/03 06:58:27;;;;;;;8.93;2.72;;;10.70;99.90;;;;;;5074835;28;20397;-76
2024/04/03 07:00:52;;;;;;;11.52;2.90;;;10.70;99.90;;;;;;5075048;28;20024;-76
2024/04/03 07:03:18;;;;;;;6.43;2.25;;;10.70;99.90;;;;;;5074790;28;20035;-76
2024/04/03 07:05:44;;;;;;;8.07;2.85;;;10.70;99.90;;;;;;5075104;28;20025;-76
2024/04/03 07:08:13;;;;;;;8.75;2.95;;;10.80;99.90;;;;;;5074728;28;20401;-76
2024/04/03 07:10:40;;;;;;;4.78;2.22;;;10.80;99.90;;;;;;5074915;28;20029;-76
2024/04/03 07:13:06;;;;;;;7.97;3.15;;;10.80;99.90;;;;;;5074460;28;20016;-76
2024/04/03 07:15:33;;;;;;;7.13;2.10;;;10.80;99.90;;;;;;5074823;28;20031;-76
2024/04/03 07:18:01;;;;;;;10.75;2.72;;;10.80;99.90;;;;;;5074190;28;20500;-76
2024/04/03 07:20:31;;;;;;;5.68;2.20;;;10.80;99.90;;;;;;5075169;28;20055;-75
2024/04/03 07:22:58;;;;;;;8.18;2.65;;;10.80;99.90;;;;;;5074281;28;20046;-76
2024/04/03 07:25:25;;;;;;;6.28;2.30;;;10.80;99.90;;;;;;5075135;28;20021;-76
2024/04/03 07:27:52;;;;;;;6.70;2.30;;;10.80;99.90;;;;;;5074122;28;20103;-76
2024/04/03 07:30:18;;;;;;;8.13;2.45;;;10.90;99.90;;;;;;5074856;28;20029;-76
2024/04/03 07:32:44;;;;;;;6.50;2.22;;;10.90;99.90;;;;;;5073717;28;20029;-76
2024/04/03 07:35:10;;;;;;;8.80;2.83;;;10.90;99.90;;;;;;5074910;28;20029;-76
2024/04/03 07:37:42;;;;;;;6.78;2.40;;;10.90;99.90;;;;;;5074010;28;20561;-76
2024/04/03 07:40:09;;;;;;;7.53;2.38;;;10.90;99.90;;;;;;5074790;28;20024;-76
2024/04/03 07:42:44;;;;;;;6.93;2.40;;;10.90;99.90;;;;;;5073787;28;20031;-76
2024/04/03 07:45:10;;;;;;;4.03;2.15;;;10.90;99.90;;;;;;5074694;28;20036;-76
2024/04/03 07:47:36;;;;;;;6.13;2.28;;;10.90;99.90;;;;;;5073898;28;20103;-76
2024/04/03 07:50:05;;;;;;;9.02;2.30;;;10.90;99.90;;;;;;5074411;28;20481;-75
2024/04/03 07:52:31;;;;;;;4.03;1.90;;;10.90;99.90;;;;;;5072559;28;20024;-76
2024/04/03 07:54:57;;;;;;;9.30;2.50;;;10.90;99.90;;;;;;5074759;28;20020;-76
2024/04/03 07:57:22;;;;;;;9.73;3.03;;;10.80;99.90;;;;;;5073795;28;20139;-76
2024/04/03 07:59:48;;;;;;;7.15;2.58;;;10.80;99.90;;;;;;5074293;28;20472;-76
2024/04/03 08:02:15;;;;;;;6.85;2.50;;;10.80;99.90;;;;;;5073624;28;20029;-76
2024/04/03 08:04:41;;;;;;;7.63;2.50;;;10.80;99.90;;;;;;5074290;28;20032;-76
2024/04/03 08:07:08;;;;;;;7.80;2.92;;;10.80;99.90;;;;;;5073594;28;20099;-75
2024/04/03 08:09:34;;;;;;;11.32;2.70;;;10.80;99.90;;;;;;5074205;28;20571;-76
2024/04/03 08:12:01;;;;;;;8.45;2.90;;;10.70;99.90;;;;;;5073260;28;20104;-76
2024/04/03 08:14:27;;;;;;;7.20;2.63;;;10.70;99.90;;;;;;5074157;28;20025;-76
2024/04/03 08:16:56;;;;;;;8.32;2.88;;;10.80;99.90;;;;;;5073147;28;20024;-75
2024/04/03 08:19:23;;;;;;;7.65;2.50;;;10.80;99.90;;;;;;5074099;28;20095;-76
2024/04/03 08:21:49;;;;;;;8.80;2.70;;;10.90;99.90;;;;;;5073075;28;20517;-76
2024/04/03 08:24:15;;;;;;;6.25;2.58;;;10.90;99.90;;;;;;5073944;28;20020;-75
2024/04/03 08:26:41;;;;;;;6.78;2.75;;;10.90;99.90;;;;;;5073188;28;20074;-75
2024/04/03 08:29:12;;;;;;;10.02;2.85;;;11.00;99.90;;;;;;5073607;28;20012;-76
2024/04/03 08:31:38;;;;;;;8.32;2.95;;;11.00;99.90;;;;;;5073385;28;20028;-76
2024/04/03 08:34:03;;;;;;;8.05;2.50;;;11.00;99.90;;;;;;5073176;28;20036;-76
2024/04/03 08:36:29;;;;;;;7.10;2.80;;;11.00;99.90;;;;;;5072243;28;20028;-76
2024/04/03 08:38:54;;;;;;;7.10;3.00;;;11.00;99.90;;;;;;5072633;28;20017;-76
2024/04/03 08:41:20;;;;;;;9.77;2.63;;;11.00;99.90;;;;;;5073442;28;20021;-76
2024/04/03 08:43:48;;;;;;;10.10;2.88;;;11.00;99.90;;;;;;5072812;28;20025;-76
2024/04/03 08:46:15;;;;;;;8.55;2.83;;;11.00;99.90;;;;;;5073406;28;20048;-76
2024/04/03 08:48:41;;;;;;;6.53;2.30;;;11.00;99.90;;;;;;5072531;28;20040;-76
2024/04/03 08:51:06;;;;;;;5.03;2.38;;;11.00;99.90;;;;;;5071770;28;20131;-76
2024/04/03 08:53:32;;;;;;;8.18;2.60;;;11.00;99.90;;;;;;5072300;28;20145;-76
2024/04/03 08:55:59;;;;;;;10.13;3.08;;;11.00;99.90;;;;;;5073296;28;20466;-76
2024/04/03 08:58:28;;;;;;;7.93;2.95;;;11.00;99.90;;;;;;5071252;28;20020;-75
2024/04/03 09:00:56;;;;;;;6.85;2.67;;;11.00;99.90;;;;;;5073498;28;20013;-75
2024/04/03 09:03:22;;;;;;;9.15;2.80;;;11.00;99.90;;;;;;5072586;28;20020;-76
2024/04/03 09:05:49;;;;;;;9.10;3.38;;;11.00;99.90;;;;;;5073492;28;20497;-75
2024/04/03 09:08:15;;;;;;;5.45;2.90;;;11.00;99.90;;;;;;5072129;28;20025;-76
2024/04/03 09:10:56;;;;;;;6.88;3.10;;;11.00;99.90;;;;;;5073151;28;20028;-76
2024/04/03 09:13:22;;;;;;;4.90;2.53;;;11.00;99.90;;;;;;5071871;28;20024;-75
2024/04/03 09:15:52;;;;;;;5.22;2.55;;;11.00;99.90;;;;;;5073003;28;20024;-76
2024/04/03 09:18:19;;;;;;;7.93;2.85;;;11.00;99.90;;;;;;5071896;28;20470;-76
2024/04/03 09:20:50;;;;;;;6.22;2.35;;;11.00;99.90;;;;;;5072677;28;20058;-76
2024/04/03 09:23:17;;;;;;;;;;;11.00;99.90;;;;;;5072178;28;20028;-76
2024/04/03 09:25:42;;;;;;;7.10;2.60;;;11.00;99.90;;;;;;5072608;28;19912;-76
2024/04/03 09:28:10;;;;;;;9.00;2.78;;;11.00;99.90;;;;;;5071725;28;20028;-76
2024/04/03 09:30:40;;;;;;;6.20;2.10;;;11.00;99.90;;;;;;5072641;28;20024;-76
2024/04/03 09:33:07;;;;;;;10.43;3.90;;;11.00;99.90;;;;;;5071577;28;20020;-75
2024/04/03 09:35:35;;;;;;;5.47;2.47;;;11.10;99.90;;;;;;5072398;28;20107;-76
2024/04/03 09:38:01;;;;;;;7.70;2.85;;;11.10;99.90;;;;;;5071550;28;20078;-76
2024/04/03 09:40:29;;;;;;;4.90;1.98;;;11.20;99.90;;;;;;5072614;28;20465;-76
2024/04/03 09:43:03;;;;;;;5.75;2.30;;;11.20;99.90;;;;;;5071673;28;20024;-76
2024/04/03 09:45:30;;;;;;;3.83;1.98;;;11.10;99.90;;;;;;5072508;28;20085;-76
2024/04/03 09:48:04;;;;;;;6.25;1.92;;;11.20;99.90;;;;;;5071422;28;20028;-76
2024/04/03 09:50:39;;;;;;;6.68;2.63;;;11.20;99.90;;;;;;5072256;28;20148;-76
2024/04/03 09:53:12;;;;;;;8.98;2.50;;;11.20;99.90;;;;;;5071397;28;20078;-76
2024/04/03 09:55:38;;;;;;;4.97;2.33;;;11.20;99.90;;;;;;5072374;28;20066;-76
2024/04/03 09:58:11;;;;;;;4.68;2.13;;;11.30;99.90;;;;;;5071289;28;20029;-76
2024/04/03 10:00:49;;;;;;;4.30;2.60;;;11.30;99.90;;;;;;5072269;28;20033;-76
2024/04/03 10:03:36;;;;;;;7.10;4.15;;;11.30;99.90;;;;;;5071512;28;20086;-76
2024/04/03 10:06:04;;;;;;;5.55;2.00;;;11.40;99.90;;;;;;5071053;28;20449;-76
2024/04/03 10:08:34;;;;;;;8.88;2.20;;;11.40;99.90;;;;;;5069917;28;20033;-76
2024/04/03 10:11:10;;;;;;;5.88;2.17;;;11.50;99.90;;;;;;5072096;28;20020;-77
2024/04/03 10:13:40;;;;;;;4.72;1.83;;;11.50;99.90;;;;;;5069920;28;20016;-76
2024/04/03 10:16:14;;;;;;;4.82;2.00;;;11.60;99.90;;;;;;5071779;28;20104;-76
2024/04/03 10:18:49;;;;;;;5.55;2.20;;;11.60;99.90;;;;;;5071204;28;20017;-76
2024/04/03 10:21:15;;;;;;;4.25;2.17;;;11.60;99.90;;;;;;5072397;28;20036;-77
2024/04/03 10:23:42;;;;;;;3.75;1.88;;;11.70;99.90;;;;;;5071350;28;20104;-76
2024/04/03 10:26:09;;;;;;;5.53;2.25;;;11.70;99.90;;;;;;5070759;28;20489;-76
2024/04/03 10:28:34;;;;;;;5.78;2.00;;;11.80;99.90;;;;;;5071153;28;20021;-76
2024/04/03 10:31:00;;;;;;;4.80;1.73;;;12.00;99.90;;;;;;5071953;28;20547;-75
2024/04/03 10:33:28;;;;;;;4.50;2.08;;;12.00;99.90;;;;;;5070882;28;20544;-75
2024/04/03 10:35:54;;;;;;;6.43;1.90;;;12.10;99.90;;;;;;5071533;28;20040;-76
2024/04/03 10:38:20;;;;;;;4.05;1.80;;;12.20;99.90;;;;;;5071167;28;20027;-75
2024/04/03 10:40:49;;;;;;;3.90;1.88;;;12.20;99.90;;;;;;5071613;28;20421;-76
2024/04/03 10:43:32;;;;;;;4.20;2.08;;;12.20;99.90;;;;;;5070732;28;20037;-77
2024/04/03 10:45:57;;;;;;;4.72;2.05;;;12.30;99.90;;;;;;5071513;28;20028;-75
2024/04/03 10:48:24;;;;;;;2.40;1.50;;;12.30;99.90;;;;;;5071005;28;20025;-75
2024/04/03 10:50:50;;;;;;;2.80;1.83;;;12.40;99.90;;;;;;5071515;28;20135;-75
2024/04/03 10:53:16;;;;;;;6.80;2.50;;;12.40;99.90;;;;;;5071321;28;20103;-75
2024/04/03 10:55:41;;;;;;;4.63;1.70;;;12.50;99.90;;;;;;5071529;28;20024;-75
2024/04/03 10:58:09;;;;;;;5.35;2.05;;;12.50;99.90;;;;;;5069816;28;20023;-75
2024/04/03 11:00:37;;;;;;;2.67;1.92;;;12.50;99.90;;;;;;5071460;28;20274;-75
2024/04/03 11:03:03;;;;;;;5.30;1.77;;;12.50;99.90;;;;;;5070933;28;20021;-75
2024/04/03 11:05:29;;;;;;;4.47;2.08;;;12.50;99.90;;;;;;5071175;28;20029;-75
2024/04/03 11:07:56;;;;;;;3.15;1.65;;;12.50;99.90;;;;;;5071071;28;20028;-75
2024/04/03 11:10:22;;;;;;;5.47;1.83;;;12.50;99.90;;;;;;5071201;28;20397;-75
2024/04/03 11:12:48;;;;;;;4.65;1.73;;;12.50;99.90;;;;;;5070789;28;20020;-76
2024/04/03 11:15:22;;;;;;;3.45;1.75;;;12.50;99.90;;;;;;5069953;28;20023;-75
2024/04/03 11:17:48;;;;;;;2.58;1.50;;;12.60;99.90;;;;;;5070901;28;20023;-75
2024/04/03 11:20:14;;;;;;;4.00;2.00;;;12.60;99.90;;;;;;5071358;28;20051;-75
2024/04/03 11:22:39;;;;;;;3.67;1.92;;;12.60;99.90;;;;;;5070944;28;20049;-75
2024/04/03 11:25:12;;;;;;;3.65;1.58;;;12.50;99.90;;;;;;5071364;28;20557;-75
2024/04/03 11:27:38;;;;;;;3.17;1.70;;;12.50;99.90;;;;;;5069849;28;20506;-75
2024/04/03 11:30:04;;;;;;;3.17;1.67;;;12.60;99.90;;;;;;5074744;28;20414;-75
2024/04/03 11:32:30;;;;;;;2.22;1.50;;;12.60;99.90;;;;;;5073986;28;20093;-75
2024/04/03 11:34:56;;;;;;;3.47;2.05;;;12.60;99.90;;;;;;5074716;28;20440;-75
2024/04/03 11:37:21;;;;;;;3.95;1.90;;;12.60;99.90;;;;;;5074282;28;20092;-75
2024/04/03 11:39:47;;;;;;;2.15;1.65;;;12.60;99.90;;;;;;5074718;28;20143;-76
2024/04/03 11:42:14;;;;;;;3.53;2.83;;;12.60;99.90;;;;;;5074504;28;20025;-76
2024/04/03 11:44:40;;;;;;;2.83;1.85;;;12.60;99.90;;;;;;5072982;28;20435;-80
2024/04/03 11:47:05;;;;;;;4.35;1.90;;;12.70;99.90;;;;;;5074357;28;20020;-75
2024/04/03 11:49:31;;;;;;;5.43;3.45;;;12.70;99.90;;;;;;5074045;28;20078;-76
2024/04/03 11:51:57;;;;;;;5.10;2.88;;;12.70;99.90;;;;;;5073972;28;20076;-75
2024/04/03 11:54:22;;;;;;;5.75;3.28;;;12.60;99.90;;;;;;5074026;28;20024;-76
2024/04/03 11:56:48;;;;;;;5.30;3.22;;;12.60;99.90;;;;;;5074313;28;20012;-76
2024/04/03 11:59:14;;;;;;;2.53;1.83;;;12.60;99.90;;;;;;5073928;28;20440;-76
2024/04/03 12:01:40;;;;;;;5.72;3.67;;;12.70;99.90;;;;;;5074062;28;20063;-75
2024/04/03 12:04:05;;;;;;;6.15;2.50;;;12.70;99.90;;;;;;5073733;28;20021;-76
2024/04/03 12:06:31;;;;;;;4.95;2.20;;;12.70;99.90;;;;;;5074010;28;20502;-77
2024/04/03 12:08:57;;;;;;;2.85;1.70;;;12.70;99.90;;;;;;5073584;28;20024;-76
2024/04/03 12:11:23;;;;;;;2.80;2.35;;;12.80;99.90;;;;;;5073963;28;20020;-76
2024/04/03 12:13:48;;;;;;;4.72;2.70;;;12.70;99.90;;;;;;5073501;28;20442;-76
2024/04/03 12:16:20;;;;;;;4.75;2.75;;;12.70;99.90;;;;;;5073806;28;20028;-75
2024/04/03 12:19:12;;;;;;;6.88;3.38;;;12.70;99.90;;;;;;5072083;28;20016;-75
2024/04/03 12:21:34;;;;;;;7.90;4.03;;;12.70;99.90;;;;;;5073674;28;20518;-76
2024/04/03 12:24:00;;;;;;;5.65;2.60;;;12.80;99.90;;;;;;5073308;28;20109;-76
2024/04/03 12:26:26;;;;;;;3.75;2.50;;;12.80;99.90;;;;;;5073865;28;20131;-75
2024/04/03 12:28:52;;;;;;;4.03;2.75;;;12.80;99.90;;;;;;5073173;28;20025;-76
2024/04/03 12:31:17;;;;;;;8.55;5.55;;;12.80;99.90;;;;;;5074001;28;20039;-75
2024/04/03 12:33:43;;;;;;;2.25;1.85;;;12.90;99.90;;;;;;5071738;28;20425;-76
2024/04/03 12:36:08;;;;;;;7.55;4.85;;;12.80;99.90;;;;;;5072262;28;20115;-76
2024/04/03 12:38:34;;;;;;;6.82;3.83;;;12.80;99.90;;;;;;5072689;28;20017;-76
2024/04/03 12:41:00;;;;;;;7.75;4.15;;;12.90;99.90;;;;;;5073337;28;20062;-75
2024/04/03 12:43:26;;;;;;;7.97;4.28;;;12.90;99.90;;;;;;5071664;28;20397;-76
2024/04/03 12:45:58;;;;;;;2.35;2.00;;;12.90;99.90;;;;;;5073181;28;20028;-76